CheckWX is a tool to help pilots better visualize weather data.  It is not intended as a substitute for an official pre-flight weather briefing.

23:04:17 UTC

KROS METAR
Rush City Regional Airport
Rush City, Minnesota, USA
Current

9 mins ago

KROS 082255Z AUTO 01005KT 10SM OVC019 00/M02 A2980 RMK AO2 T00001023
Observed
Dec-8 @ 22:55 UTC
Wind
  • 010° at 5 KTS
Visibility
10 SM
Flight Rules
MVFR
Cloud Levels
  • Overcast at 1,900' AGL
Temperature
C / 32°F
Dewpoint
-2°C / 28°F
Humidity
87%
Altimeter
29.8" Hg
Pressure
1009.12 hPa
Previous

29 mins ago

KROS 082235Z AUTO 36004KT 10SM OVC019 00/M02 A2980 RMK AO2 T00011023
Observed
Dec-8 @ 22:35 UTC
Wind
  • 360° at 4 KTS
Visibility
10 SM
Flight Rules
MVFR
Cloud Levels
  • Overcast at 1,900' AGL
Temperature
C / 32°F
Dewpoint
-2°C / 28°F
Humidity
87%
Altimeter
29.8" Hg
Pressure
1009.12 hPa
Previous

48 mins ago

KROS 082216Z AUTO 36005KT 10SM OVC019 00/M02 A2980 RMK AO2 T00031025
Observed
Dec-8 @ 22:16 UTC
Wind
  • 360° at 5 KTS
Visibility
10 SM
Flight Rules
MVFR
Cloud Levels
  • Overcast at 1,900' AGL
Temperature
C / 32°F
Dewpoint
-3°C / 27°F
Humidity
80%
Altimeter
29.8" Hg
Pressure
1009.12 hPa